sensor_id;sensor_type;location;lat;lon;timestamp;P1;durP1;ratioP1;P2;durP2;ratioP2
14276;SDS011;7222;57.346;12.150;2022-07-21T00:01:38;9.07;;;8.20;;
14276;SDS011;7222;57.346;12.150;2022-07-21T00:04:05;9.33;;;8.50;;
14276;SDS011;7222;57.346;12.150;2022-07-21T00:06:32;9.33;;;8.63;;
14276;SDS011;7222;57.346;12.150;2022-07-21T00:08:59;9.03;;;8.13;;
14276;SDS011;7222;57.346;12.150;2022-07-21T00:11:26;9.43;;;8.47;;
14276;SDS011;7222;57.346;12.150;2022-07-21T00:13:53;8.53;;;7.80;;
14276;SDS011;7222;57.346;12.150;2022-07-21T00:16:20;9.67;;;8.77;;
14276;SDS011;7222;57.346;12.150;2022-07-21T00:18:49;9.43;;;8.53;;
14276;SDS011;7222;57.346;12.150;2022-07-21T00:21:16;9.33;;;8.37;;
14276;SDS011;7222;57.346;12.150;2022-07-21T00:23:43;9.30;;;8.27;;
14276;SDS011;7222;57.346;12.150;2022-07-21T00:26:10;9.57;;;8.67;;
14276;SDS011;7222;57.346;12.150;2022-07-21T00:28:37;9.90;;;8.47;;
14276;SDS011;7222;57.346;12.150;2022-07-21T00:31:04;9.53;;;8.07;;
14276;SDS011;7222;57.346;12.150;2022-07-21T00:33:31;8.60;;;7.90;;
14276;SDS011;7222;57.346;12.150;2022-07-21T00:36:00;8.80;;;7.97;;
14276;SDS011;7222;57.346;12.150;2022-07-21T00:38:27;9.97;;;8.37;;
14276;SDS011;7222;57.346;12.150;2022-07-21T00:40:54;9.23;;;8.37;;
14276;SDS011;7222;57.346;12.150;2022-07-21T00:43:21;9.83;;;8.43;;
14276;SDS011;7222;57.346;12.150;2022-07-21T00:45:48;9.17;;;8.00;;
14276;SDS011;7222;57.346;12.150;2022-07-21T00:48:18;9.40;;;8.50;;
14276;SDS011;7222;57.346;12.150;2022-07-21T00:50:45;9.87;;;8.70;;
14276;SDS011;7222;57.346;12.150;2022-07-21T00:53:13;9.37;;;8.47;;
14276;SDS011;7222;57.346;12.150;2022-07-21T00:55:42;9.00;;;8.20;;
14276;SDS011;7222;57.346;12.150;2022-07-21T00:58:09;8.50;;;7.70;;
14276;SDS011;7222;57.346;12.150;2022-07-21T01:00:37;10.17;;;9.10;;
14276;SDS011;7222;57.346;12.150;2022-07-21T01:03:04;9.83;;;8.83;;
14276;SDS011;7222;57.346;12.150;2022-07-21T01:05:32;9.87;;;8.77;;
14276;SDS011;7222;57.346;12.150;2022-07-21T01:07:59;9.10;;;8.30;;
14276;SDS011;7222;57.346;12.150;2022-07-21T01:10:30;9.80;;;8.80;;
14276;SDS011;7222;57.346;12.150;2022-07-21T01:12:57;9.73;;;8.83;;
14276;SDS011;7222;57.346;12.150;2022-07-21T01:15:25;9.03;;;8.13;;
14276;SDS011;7222;57.346;12.150;2022-07-21T01:17:52;9.57;;;8.77;;
14276;SDS011;7222;57.346;12.150;2022-07-21T01:20:20;9.63;;;8.63;;
14276;SDS011;7222;57.346;12.150;2022-07-21T01:22:51;8.77;;;7.97;;
14276;SDS011;7222;57.346;12.150;2022-07-21T01:25:19;10.63;;;8.40;;
14276;SDS011;7222;57.346;12.150;2022-07-21T01:27:47;9.77;;;8.87;;
14276;SDS011;7222;57.346;12.150;2022-07-21T01:30:14;9.00;;;8.20;;
14276;SDS011;7222;57.346;12.150;2022-07-21T01:32:41;9.43;;;8.53;;
14276;SDS011;7222;57.346;12.150;2022-07-21T01:35:11;11.00;;;9.20;;
14276;SDS011;7222;57.346;12.150;2022-07-21T01:37:41;9.63;;;8.77;;
14276;SDS011;7222;57.346;12.150;2022-07-21T01:40:11;9.23;;;8.27;;
14276;SDS011;7222;57.346;12.150;2022-07-21T01:42:56;10.77;;;8.40;;
14276;SDS011;7222;57.346;12.150;2022-07-21T01:45:23;9.47;;;8.40;;
14276;SDS011;7222;57.346;12.150;2022-07-21T01:47:50;9.57;;;8.60;;
14276;SDS011;7222;57.346;12.150;2022-07-21T01:50:18;9.20;;;8.30;;
14276;SDS011;7222;57.346;12.150;2022-07-21T01:52:48;8.83;;;7.90;;
14276;SDS011;7222;57.346;12.150;2022-07-21T01:55:16;9.47;;;8.53;;
14276;SDS011;7222;57.346;12.150;2022-07-21T01:57:43;9.63;;;8.73;;
14276;SDS011;7222;57.346;12.150;2022-07-21T02:00:10;9.43;;;8.43;;
14276;SDS011;7222;57.346;12.150;2022-07-21T02:02:37;10.40;;;9.40;;
14276;SDS011;7222;57.346;12.150;2022-07-21T02:05:05;9.50;;;8.50;;
14276;SDS011;7222;57.346;12.150;2022-07-21T02:07:32;9.10;;;8.20;;
14276;SDS011;7222;57.346;12.150;2022-07-21T02:09:59;9.90;;;9.00;;
14276;SDS011;7222;57.346;12.150;2022-07-21T02:12:28;9.80;;;8.67;;
14276;SDS011;7222;57.346;12.150;2022-07-21T02:14:55;9.87;;;8.87;;
14276;SDS011;7222;57.346;12.150;2022-07-21T02:17:22;9.60;;;8.70;;
14276;SDS011;7222;57.346;12.150;2022-07-21T02:19:49;9.17;;;8.27;;
14276;SDS011;7222;57.346;12.150;2022-07-21T02:22:16;9.63;;;8.73;;
14276;SDS011;7222;57.346;12.150;2022-07-21T02:24:43;9.33;;;8.43;;
14276;SDS011;7222;57.346;12.150;2022-07-21T02:30:33;9.20;;;8.27;;
14276;SDS011;7222;57.346;12.150;2022-07-21T02:33:00;8.47;;;7.77;;
14276;SDS011;7222;57.346;12.150;2022-07-21T02:35:27;9.97;;;8.77;;
14276;SDS011;7222;57.346;12.150;2022-07-21T02:37:54;9.63;;;8.70;;
14276;SDS011;7222;57.346;12.150;2022-07-21T02:40:22;8.80;;;8.00;;
14276;SDS011;7222;57.346;12.150;2022-07-21T02:42:49;8.77;;;7.90;;
14276;SDS011;7222;57.346;12.150;2022-07-21T02:45:16;8.87;;;8.03;;
14276;SDS011;7222;57.346;12.150;2022-07-21T02:47:54;9.60;;;8.63;;
14276;SDS011;7222;57.346;12.150;2022-07-21T02:50:23;8.83;;;8.03;;
14276;SDS011;7222;57.346;12.150;2022-07-21T02:52:53;8.60;;;7.80;;
14276;SDS011;7222;57.346;12.150;2022-07-21T02:55:22;9.37;;;8.37;;
14276;SDS011;7222;57.346;12.150;2022-07-21T02:57:49;10.00;;;9.03;;
14276;SDS011;7222;57.346;12.150;2022-07-21T03:03:51;9.70;;;8.80;;
14276;SDS011;7222;57.346;12.150;2022-07-21T03:06:18;9.80;;;8.90;;
14276;SDS011;7222;57.346;12.150;2022-07-21T03:08:45;9.00;;;8.17;;
14276;SDS011;7222;57.346;12.150;2022-07-21T03:11:12;9.13;;;8.30;;
14276;SDS011;7222;57.346;12.150;2022-07-21T03:13:39;9.17;;;8.27;;
14276;SDS011;7222;57.346;12.150;2022-07-21T03:19:30;8.93;;;8.13;;
14276;SDS011;7222;57.346;12.150;2022-07-21T03:21:57;8.77;;;7.93;;
14276;SDS011;7222;57.346;12.150;2022-07-21T03:24:24;8.57;;;7.77;;
14276;SDS011;7222;57.346;12.150;2022-07-21T03:26:51;8.90;;;8.03;;
14276;SDS011;7222;57.346;12.150;2022-07-21T03:29:18;9.17;;;8.37;;
14276;SDS011;7222;57.346;12.150;2022-07-21T03:31:45;9.60;;;8.70;;
14276;SDS011;7222;57.346;12.150;2022-07-21T03:34:12;8.77;;;7.97;;
14276;SDS011;7222;57.346;12.150;2022-07-21T03:36:41;8.20;;;7.50;;
14276;SDS011;7222;57.346;12.150;2022-07-21T03:39:08;8.40;;;7.77;;
14276;SDS011;7222;57.346;12.150;2022-07-21T03:41:35;9.20;;;8.40;;
14276;SDS011;7222;57.346;12.150;2022-07-21T03:44:02;8.60;;;7.90;;
14276;SDS011;7222;57.346;12.150;2022-07-21T03:46:29;9.07;;;8.27;;
14276;SDS011;7222;57.346;12.150;2022-07-21T03:48:56;9.30;;;8.40;;
14276;SDS011;7222;57.346;12.150;2022-07-21T03:51:23;9.03;;;8.23;;
14276;SDS011;7222;57.346;12.150;2022-07-21T03:53:51;10.13;;;9.17;;
14276;SDS011;7222;57.346;12.150;2022-07-21T03:56:18;9.53;;;8.63;;
14276;SDS011;7222;57.346;12.150;2022-07-21T03:58:45;9.97;;;9.03;;
14276;SDS011;7222;57.346;12.150;2022-07-21T04:01:12;9.20;;;8.20;;
14276;SDS011;7222;57.346;12.150;2022-07-21T04:03:39;8.83;;;8.03;;
14276;SDS011;7222;57.346;12.150;2022-07-21T04:06:07;10.17;;;9.17;;
14276;SDS011;7222;57.346;12.150;2022-07-21T04:08:35;10.90;;;9.70;;
14276;SDS011;7222;57.346;12.150;2022-07-21T04:11:04;9.97;;;8.97;;
14276;SDS011;7222;57.346;12.150;2022-07-21T04:13:31;9.80;;;8.90;;
14276;SDS011;7222;57.346;12.150;2022-07-21T04:15:58;9.30;;;8.50;;
14276;SDS011;7222;57.346;12.150;2022-07-21T04:18:25;10.40;;;9.40;;
14276;SDS011;7222;57.346;12.150;2022-07-21T04:20:52;8.93;;;8.13;;
14276;SDS011;7222;57.346;12.150;2022-07-21T04:23:19;10.13;;;9.13;;
14276;SDS011;7222;57.346;12.150;2022-07-21T04:25:46;9.47;;;8.60;;
14276;SDS011;7222;57.346;12.150;2022-07-21T04:28:15;9.83;;;8.63;;
14276;SDS011;7222;57.346;12.150;2022-07-21T04:30:42;11.23;;;9.80;;
14276;SDS011;7222;57.346;12.150;2022-07-21T04:33:09;10.07;;;9.13;;
14276;SDS011;7222;57.346;12.150;2022-07-21T04:35:36;9.73;;;8.83;;
14276;SDS011;7222;57.346;12.150;2022-07-21T04:38:04;10.10;;;9.03;;
14276;SDS011;7222;57.346;12.150;2022-07-21T04:40:31;9.53;;;8.73;;
14276;SDS011;7222;57.346;12.150;2022-07-21T04:42:58;10.77;;;9.67;;
14276;SDS011;7222;57.346;12.150;2022-07-21T04:45:27;9.80;;;8.90;;
14276;SDS011;7222;57.346;12.150;2022-07-21T04:47:54;10.17;;;9.27;;
14276;SDS011;7222;57.346;12.150;2022-07-21T04:50:22;10.53;;;9.43;;
14276;SDS011;7222;57.346;12.150;2022-07-21T04:52:50;10.17;;;9.17;;
14276;SDS011;7222;57.346;12.150;2022-07-21T04:55:18;10.20;;;9.20;;
14276;SDS011;7222;57.346;12.150;2022-07-21T04:57:49;10.73;;;9.73;;
14276;SDS011;7222;57.346;12.150;2022-07-21T05:00:18;10.70;;;9.50;;
14276;SDS011;7222;57.346;12.150;2022-07-21T05:02:48;10.13;;;9.23;;
14276;SDS011;7222;57.346;12.150;2022-07-21T05:05:16;10.63;;;9.63;;
14276;SDS011;7222;57.346;12.150;2022-07-21T05:07:43;11.20;;;10.00;;
14276;SDS011;7222;57.346;12.150;2022-07-21T05:10:11;10.27;;;9.27;;
14276;SDS011;7222;57.346;12.150;2022-07-21T05:12:39;10.73;;;9.60;;
14276;SDS011;7222;57.346;12.150;2022-07-21T05:15:07;10.57;;;9.57;;
14276;SDS011;7222;57.346;12.150;2022-07-21T05:17:36;10.87;;;9.60;;
14276;SDS011;7222;57.346;12.150;2022-07-21T05:20:08;10.67;;;9.67;;
14276;SDS011;7222;57.346;12.150;2022-07-21T05:22:36;10.60;;;9.60;;
14276;SDS011;7222;57.346;12.150;2022-07-21T05:25:03;11.53;;;10.10;;
14276;SDS011;7222;57.346;12.150;2022-07-21T05:27:32;10.80;;;9.77;;
14276;SDS011;7222;57.346;12.150;2022-07-21T05:29:59;10.70;;;9.60;;
14276;SDS011;7222;57.346;12.150;2022-07-21T05:32:26;10.53;;;9.43;;
14276;SDS011;7222;57.346;12.150;2022-07-21T05:34:53;10.70;;;9.70;;
14276;SDS011;7222;57.346;12.150;2022-07-21T05:37:21;11.03;;;9.97;;
14276;SDS011;7222;57.346;12.150;2022-07-21T05:39:48;10.80;;;9.80;;
14276;SDS011;7222;57.346;12.150;2022-07-21T05:42:15;10.87;;;9.73;;
14276;SDS011;7222;57.346;12.150;2022-07-21T05:44:43;11.30;;;10.20;;
14276;SDS011;7222;57.346;12.150;2022-07-21T05:47:10;10.30;;;9.37;;
14276;SDS011;7222;57.346;12.150;2022-07-21T05:49:37;10.23;;;9.33;;
14276;SDS011;7222;57.346;12.150;2022-07-21T05:52:04;11.17;;;9.77;;
14276;SDS011;7222;57.346;12.150;2022-07-21T05:54:32;11.77;;;9.20;;
14276;SDS011;7222;57.346;12.150;2022-07-21T05:57:00;9.90;;;9.10;;
14276;SDS011;7222;57.346;12.150;2022-07-21T05:59:27;11.03;;;9.93;;
14276;SDS011;7222;57.346;12.150;2022-07-21T06:01:54;11.07;;;9.87;;
14276;SDS011;7222;57.346;12.150;2022-07-21T06:04:21;11.27;;;10.13;;
14276;SDS011;7222;57.346;12.150;2022-07-21T06:06:48;10.70;;;9.63;;
14276;SDS011;7222;57.346;12.150;2022-07-21T06:09:15;11.93;;;10.60;;
14276;SDS011;7222;57.346;12.150;2022-07-21T06:11:43;10.87;;;9.87;;
14276;SDS011;7222;57.346;12.150;2022-07-21T06:14:10;10.60;;;9.63;;
14276;SDS011;7222;57.346;12.150;2022-07-21T06:16:37;11.53;;;10.43;;
14276;SDS011;7222;57.346;12.150;2022-07-21T06:19:04;11.03;;;10.03;;
14276;SDS011;7222;57.346;12.150;2022-07-21T06:21:32;11.07;;;10.07;;
14276;SDS011;7222;57.346;12.150;2022-07-21T06:23:59;10.97;;;9.87;;
14276;SDS011;7222;57.346;12.150;2022-07-21T06:26:27;9.97;;;8.93;;
14276;SDS011;7222;57.346;12.150;2022-07-21T06:28:55;10.80;;;9.77;;
14276;SDS011;7222;57.346;12.150;2022-07-21T06:31:22;11.77;;;10.70;;
14276;SDS011;7222;57.346;12.150;2022-07-21T06:33:49;11.30;;;10.20;;
14276;SDS011;7222;57.346;12.150;2022-07-21T06:36:16;12.07;;;10.87;;
14276;SDS011;7222;57.346;12.150;2022-07-21T06:38:43;11.50;;;10.27;;
14276;SDS011;7222;57.346;12.150;2022-07-21T06:41:10;12.17;;;10.97;;
14276;SDS011;7222;57.346;12.150;2022-07-21T06:43:37;11.50;;;10.40;;
14276;SDS011;7222;57.346;12.150;2022-07-21T06:46:06;11.70;;;10.60;;
14276;SDS011;7222;57.346;12.150;2022-07-21T06:48:33;12.20;;;11.10;;
14276;SDS011;7222;57.346;12.150;2022-07-21T06:51:00;12.30;;;11.10;;
14276;SDS011;7222;57.346;12.150;2022-07-21T06:53:27;12.33;;;11.13;;
14276;SDS011;7222;57.346;12.150;2022-07-21T06:55:54;12.67;;;11.33;;
14276;SDS011;7222;57.346;12.150;2022-07-21T06:58:21;11.80;;;10.63;;
14276;SDS011;7222;57.346;12.150;2022-07-21T07:00:50;10.90;;;10.07;;
14276;SDS011;7222;57.346;12.150;2022-07-21T07:03:19;10.67;;;9.80;;
14276;SDS011;7222;57.346;12.150;2022-07-21T07:05:47;10.80;;;9.80;;
14276;SDS011;7222;57.346;12.150;2022-07-21T07:08:15;11.17;;;10.20;;
14276;SDS011;7222;57.346;12.150;2022-07-21T07:10:43;11.93;;;10.90;;
14276;SDS011;7222;57.346;12.150;2022-07-21T07:13:11;12.20;;;11.10;;
14276;SDS011;7222;57.346;12.150;2022-07-21T07:15:43;11.63;;;10.63;;
14276;SDS011;7222;57.346;12.150;2022-07-21T07:18:10;11.73;;;10.77;;
14276;SDS011;7222;57.346;12.150;2022-07-21T07:20:39;11.50;;;10.30;;
14276;SDS011;7222;57.346;12.150;2022-07-21T07:23:06;10.87;;;9.83;;
14276;SDS011;7222;57.346;12.150;2022-07-21T07:25:33;11.13;;;10.17;;
14276;SDS011;7222;57.346;12.150;2022-07-21T07:28:00;10.50;;;9.47;;
14276;SDS011;7222;57.346;12.150;2022-07-21T07:30:27;12.47;;;11.27;;
14276;SDS011;7222;57.346;12.150;2022-07-21T07:32:54;10.57;;;9.50;;
14276;SDS011;7222;57.346;12.150;2022-07-21T07:35:21;10.90;;;9.90;;
14276;SDS011;7222;57.346;12.150;2022-07-21T07:37:49;10.33;;;9.43;;
14276;SDS011;7222;57.346;12.150;2022-07-21T07:40:17;11.27;;;10.30;;
14276;SDS011;7222;57.346;12.150;2022-07-21T07:42:46;11.53;;;10.47;;
14276;SDS011;7222;57.346;12.150;2022-07-21T07:45:13;9.33;;;8.63;;
14276;SDS011;7222;57.346;12.150;2022-07-21T07:47:41;11.03;;;10.03;;
14276;SDS011;7222;57.346;12.150;2022-07-21T07:50:09;10.67;;;9.77;;
14276;SDS011;7222;57.346;12.150;2022-07-21T07:52:38;11.70;;;10.60;;
14276;SDS011;7222;57.346;12.150;2022-07-21T07:55:07;10.80;;;9.67;;
14276;SDS011;7222;57.346;12.150;2022-07-21T07:57:35;11.20;;;10.20;;
14276;SDS011;7222;57.346;12.150;2022-07-21T08:00:04;10.50;;;9.60;;
14276;SDS011;7222;57.346;12.150;2022-07-21T08:02:34;10.67;;;9.60;;
14276;SDS011;7222;57.346;12.150;2022-07-21T08:05:01;10.70;;;9.87;;
14276;SDS011;7222;57.346;12.150;2022-07-21T08:07:28;10.45;;;9.45;;
14276;SDS011;7222;57.346;12.150;2022-07-21T08:09:55;10.82;;;9.80;;
14276;SDS011;7222;57.346;12.150;2022-07-21T08:12:24;9.68;;;8.75;;
14276;SDS011;7222;57.346;12.150;2022-07-21T08:14:51;10.85;;;9.95;;
14276;SDS011;7222;57.346;12.150;2022-07-21T08:17:18;10.07;;;9.23;;
14276;SDS011;7222;57.346;12.150;2022-07-21T08:19:45;9.95;;;9.05;;
14276;SDS011;7222;57.346;12.150;2022-07-21T08:22:12;10.50;;;9.48;;
14276;SDS011;7222;57.346;12.150;2022-07-21T08:24:39;11.80;;;10.43;;
14276;SDS011;7222;57.346;12.150;2022-07-21T08:27:07;10.52;;;9.65;;
14276;SDS011;7222;57.346;12.150;2022-07-21T08:29:35;11.35;;;9.80;;
14276;SDS011;7222;57.346;12.150;2022-07-21T08:32:03;10.40;;;9.40;;
14276;SDS011;7222;57.346;12.150;2022-07-21T08:37:53;10.43;;;9.55;;
14276;SDS011;7222;57.346;12.150;2022-07-21T08:40:22;9.73;;;8.82;;
14276;SDS011;7222;57.346;12.150;2022-07-21T08:42:53;9.32;;;8.52;;
14276;SDS011;7222;57.346;12.150;2022-07-21T08:45:22;10.43;;;9.57;;
14276;SDS011;7222;57.346;12.150;2022-07-21T08:47:50;9.45;;;8.57;;
14276;SDS011;7222;57.346;12.150;2022-07-21T08:50:18;9.40;;;8.50;;
14276;SDS011;7222;57.346;12.150;2022-07-21T08:52:45;10.35;;;9.35;;
14276;SDS011;7222;57.346;12.150;2022-07-21T08:55:12;10.68;;;9.68;;
14276;SDS011;7222;57.346;12.150;2022-07-21T08:57:39;9.05;;;8.35;;
14276;SDS011;7222;57.346;12.150;2022-07-21T09:00:07;9.27;;;8.50;;
14276;SDS011;7222;57.346;12.150;2022-07-21T09:02:37;10.75;;;9.73;;
14276;SDS011;7222;57.346;12.150;2022-07-21T09:05:05;10.65;;;9.65;;
14276;SDS011;7222;57.346;12.150;2022-07-21T09:07:46;10.43;;;9.52;;
14276;SDS011;7222;57.346;12.150;2022-07-21T09:10:14;9.98;;;9.07;;
14276;SDS011;7222;57.346;12.150;2022-07-21T09:12:50;10.35;;;9.55;;
14276;SDS011;7222;57.346;12.150;2022-07-21T09:15:20;11.18;;;10.38;;
14276;SDS011;7222;57.346;12.150;2022-07-21T09:18:03;10.48;;;9.57;;
14276;SDS011;7222;57.346;12.150;2022-07-21T09:20:33;10.80;;;9.90;;
14276;SDS011;7222;57.346;12.150;2022-07-21T09:23:01;10.50;;;8.45;;
14276;SDS011;7222;57.346;12.150;2022-07-21T09:25:33;9.73;;;8.93;;
14276;SDS011;7222;57.346;12.150;2022-07-21T09:28:11;10.15;;;9.18;;
14276;SDS011;7222;57.346;12.150;2022-07-21T09:30:56;8.82;;;8.13;;
14276;SDS011;7222;57.346;12.150;2022-07-21T09:33:28;9.80;;;8.90;;
14276;SDS011;7222;57.346;12.150;2022-07-21T09:36:00;11.27;;;10.38;;
14276;SDS011;7222;57.346;12.150;2022-07-21T09:38:30;10.52;;;9.40;;
14276;SDS011;7222;57.346;12.150;2022-07-21T09:41:05;9.80;;;8.93;;
14276;SDS011;7222;57.346;12.150;2022-07-21T09:43:35;9.60;;;8.80;;
14276;SDS011;7222;57.346;12.150;2022-07-21T09:46:08;10.98;;;9.95;;
14276;SDS011;7222;57.346;12.150;2022-07-21T09:48:42;10.75;;;9.75;;
14276;SDS011;7222;57.346;12.150;2022-07-21T09:51:24;9.65;;;8.80;;
14276;SDS011;7222;57.346;12.150;2022-07-21T09:57:14;9.82;;;9.02;;
14276;SDS011;7222;57.346;12.150;2022-07-21T09:59:42;10.43;;;9.63;;
14276;SDS011;7222;57.346;12.150;2022-07-21T10:02:11;9.70;;;8.90;;
14276;SDS011;7222;57.346;12.150;2022-07-21T10:04:43;11.20;;;10.10;;
14276;SDS011;7222;57.346;12.150;2022-07-21T10:07:13;9.55;;;8.82;;
14276;SDS011;7222;57.346;12.150;2022-07-21T10:09:43;9.73;;;8.93;;
14276;SDS011;7222;57.346;12.150;2022-07-21T10:15:32;9.85;;;9.05;;
14276;SDS011;7222;57.346;12.150;2022-07-21T10:17:59;9.52;;;8.82;;
14276;SDS011;7222;57.346;12.150;2022-07-21T10:20:30;10.48;;;9.68;;
14276;SDS011;7222;57.346;12.150;2022-07-21T10:23:02;9.60;;;8.65;;
14276;SDS011;7222;57.346;12.150;2022-07-21T10:25:36;8.90;;;8.10;;
14276;SDS011;7222;57.346;12.150;2022-07-21T10:28:13;11.05;;;10.07;;
14276;SDS011;7222;57.346;12.150;2022-07-21T10:30:43;9.38;;;8.57;;
14276;SDS011;7222;57.346;12.150;2022-07-21T10:33:11;10.20;;;9.40;;
14276;SDS011;7222;57.346;12.150;2022-07-21T10:35:40;10.70;;;9.80;;
14276;SDS011;7222;57.346;12.150;2022-07-21T10:38:14;9.50;;;8.80;;
14276;SDS011;7222;57.346;12.150;2022-07-21T10:40:52;10.13;;;9.13;;
14276;SDS011;7222;57.346;12.150;2022-07-21T10:43:39;9.35;;;8.65;;
14276;SDS011;7222;57.346;12.150;2022-07-21T10:49:01;10.10;;;9.20;;
14276;SDS011;7222;57.346;12.150;2022-07-21T10:51:37;10.52;;;9.73;;
14276;SDS011;7222;57.346;12.150;2022-07-21T11:02:42;13.05;;;11.95;;
14276;SDS011;7222;57.346;12.150;2022-07-21T11:05:10;12.40;;;11.40;;
14276;SDS011;7222;57.346;12.150;2022-07-21T11:10:44;9.95;;;9.05;;
14276;SDS011;7222;57.346;12.150;2022-07-21T11:13:13;12.75;;;11.75;;
14276;SDS011;7222;57.346;12.150;2022-07-21T11:15:45;12.43;;;11.32;;
14276;SDS011;7222;57.346;12.150;2022-07-21T11:18:16;12.98;;;11.70;;
14276;SDS011;7222;57.346;12.150;2022-07-21T11:20:43;12.93;;;11.82;;
14276;SDS011;7222;57.346;12.150;2022-07-21T11:23:33;10.98;;;10.18;;
14276;SDS011;7222;57.346;12.150;2022-07-21T11:26:01;10.45;;;9.70;;
14276;SDS011;7222;57.346;12.150;2022-07-21T11:28:28;11.38;;;10.48;;
14276;SDS011;7222;57.346;12.150;2022-07-21T11:31:05;11.65;;;10.65;;
14276;SDS011;7222;57.346;12.150;2022-07-21T11:33:33;10.88;;;9.88;;
14276;SDS011;7222;57.346;12.150;2022-07-21T11:36:02;10.77;;;9.88;;
14276;SDS011;7222;57.346;12.150;2022-07-21T11:38:29;12.13;;;10.95;;
14276;SDS011;7222;57.346;12.150;2022-07-21T11:43:40;10.57;;;9.77;;
14276;SDS011;7222;57.346;12.150;2022-07-21T11:46:07;10.00;;;9.13;;
14276;SDS011;7222;57.346;12.150;2022-07-21T11:48:34;10.75;;;9.85;;
14276;SDS011;7222;57.346;12.150;2022-07-21T11:51:02;9.98;;;9.07;;
14276;SDS011;7222;57.346;12.150;2022-07-21T11:53:30;10.85;;;9.95;;
14276;SDS011;7222;57.346;12.150;2022-07-21T11:55:57;10.52;;;9.63;;
14276;SDS011;7222;57.346;12.150;2022-07-21T11:58:26;10.43;;;9.50;;
14276;SDS011;7222;57.346;12.150;2022-07-21T12:01:03;9.70;;;9.00;;
14276;SDS011;7222;57.346;12.150;2022-07-21T12:03:31;10.15;;;9.25;;
14276;SDS011;7222;57.346;12.150;2022-07-21T12:05:59;9.63;;;8.90;;
14276;SDS011;7222;57.346;12.150;2022-07-21T12:08:27;9.95;;;9.05;;
14276;SDS011;7222;57.346;12.150;2022-07-21T12:11:04;10.45;;;9.70;;
14276;SDS011;7222;57.346;12.150;2022-07-21T12:16:19;10.80;;;10.00;;
14276;SDS011;7222;57.346;12.150;2022-07-21T12:18:46;10.18;;;9.32;;
14276;SDS011;7222;57.346;12.150;2022-07-21T12:21:13;9.80;;;9.10;;
14276;SDS011;7222;57.346;12.150;2022-07-21T12:23:40;10.98;;;10.07;;
14276;SDS011;7222;57.346;12.150;2022-07-21T12:26:08;10.50;;;9.70;;
14276;SDS011;7222;57.346;12.150;2022-07-21T12:28:48;10.73;;;10.00;;
14276;SDS011;7222;57.346;12.150;2022-07-21T12:31:20;10.07;;;9.25;;
14276;SDS011;7222;57.346;12.150;2022-07-21T12:33:48;12.15;;;11.05;;
14276;SDS011;7222;57.346;12.150;2022-07-21T12:36:16;10.80;;;9.80;;
14276;SDS011;7222;57.346;12.150;2022-07-21T12:38:47;11.60;;;10.68;;
14276;SDS011;7222;57.346;12.150;2022-07-21T12:41:16;12.70;;;11.40;;
14276;SDS011;7222;57.346;12.150;2022-07-21T12:43:52;11.25;;;10.35;;
14276;SDS011;7222;57.346;12.150;2022-07-21T12:46:27;11.93;;;11.02;;
14276;SDS011;7222;57.346;12.150;2022-07-21T12:49:02;13.23;;;12.18;;
14276;SDS011;7222;57.346;12.150;2022-07-21T12:51:30;11.25;;;10.38;;
14276;SDS011;7222;57.346;12.150;2022-07-21T12:53:57;10.38;;;9.50;;
14276;SDS011;7222;57.346;12.150;2022-07-21T12:56:24;11.57;;;10.57;;
14276;SDS011;7222;57.346;12.150;2022-07-21T12:58:53;12.60;;;11.48;;
14276;SDS011;7222;57.346;12.150;2022-07-21T13:01:24;11.30;;;10.40;;
14276;SDS011;7222;57.346;12.150;2022-07-21T13:03:52;11.98;;;11.02;;
14276;SDS011;7222;57.346;12.150;2022-07-21T13:06:20;11.20;;;10.30;;
14276;SDS011;7222;57.346;12.150;2022-07-21T13:08:47;10.98;;;10.18;;
14276;SDS011;7222;57.346;12.150;2022-07-21T13:11:15;11.57;;;10.68;;
14276;SDS011;7222;57.346;12.150;2022-07-21T13:13:43;12.23;;;11.32;;
14276;SDS011;7222;57.346;12.150;2022-07-21T13:16:11;11.82;;;10.82;;
14276;SDS011;7222;57.346;12.150;2022-07-21T13:18:40;12.10;;;11.10;;
14276;SDS011;7222;57.346;12.150;2022-07-21T13:21:07;12.00;;;10.90;;
14276;SDS011;7222;57.346;12.150;2022-07-21T13:23:34;11.20;;;10.30;;
14276;SDS011;7222;57.346;12.150;2022-07-21T13:26:02;11.50;;;10.48;;
14276;SDS011;7222;57.346;12.150;2022-07-21T13:28:29;14.35;;;13.07;;
14276;SDS011;7222;57.346;12.150;2022-07-21T13:30:56;13.15;;;12.13;;
14276;SDS011;7222;57.346;12.150;2022-07-21T13:33:23;12.05;;;11.10;;
14276;SDS011;7222;57.346;12.150;2022-07-21T13:35:51;12.82;;;11.73;;
14276;SDS011;7222;57.346;12.150;2022-07-21T13:38:18;10.85;;;9.98;;
14276;SDS011;7222;57.346;12.150;2022-07-21T13:40:45;11.57;;;10.68;;
14276;SDS011;7222;57.346;12.150;2022-07-21T13:43:12;11.20;;;10.23;;
14276;SDS011;7222;57.346;12.150;2022-07-21T13:45:40;11.48;;;10.50;;
14276;SDS011;7222;57.346;12.150;2022-07-21T13:48:07;11.60;;;10.50;;
14276;SDS011;7222;57.346;12.150;2022-07-21T13:50:34;11.82;;;10.65;;
14276;SDS011;7222;57.346;12.150;2022-07-21T13:53:02;11.13;;;10.18;;
14276;SDS011;7222;57.346;12.150;2022-07-21T13:55:29;11.77;;;10.68;;
14276;SDS011;7222;57.346;12.150;2022-07-21T13:57:56;11.65;;;10.65;;
14276;SDS011;7222;57.346;12.150;2022-07-21T14:00:23;11.20;;;10.20;;
14276;SDS011;7222;57.346;12.150;2022-07-21T14:02:50;11.02;;;10.02;;
14276;SDS011;7222;57.346;12.150;2022-07-21T14:05:17;10.60;;;9.60;;
14276;SDS011;7222;57.346;12.150;2022-07-21T14:07:44;11.82;;;10.82;;
14276;SDS011;7222;57.346;12.150;2022-07-21T14:10:13;11.80;;;10.60;;
14276;SDS011;7222;57.346;12.150;2022-07-21T14:12:39;11.25;;;10.15;;
14276;SDS011;7222;57.346;12.150;2022-07-21T14:15:07;11.05;;;10.10;;
14276;SDS011;7222;57.346;12.150;2022-07-21T14:17:34;10.88;;;9.88;;
14276;SDS011;7222;57.346;12.150;2022-07-21T14:20:01;11.25;;;10.40;;
14276;SDS011;7222;57.346;12.150;2022-07-21T14:22:29;11.40;;;10.60;;
14276;SDS011;7222;57.346;12.150;2022-07-21T14:24:58;11.85;;;10.93;;
14276;SDS011;7222;57.346;12.150;2022-07-21T14:27:43;11.00;;;9.93;;
14276;SDS011;7222;57.346;12.150;2022-07-21T14:30:11;12.10;;;11.07;;
14276;SDS011;7222;57.346;12.150;2022-07-21T14:32:38;12.30;;;11.15;;
14276;SDS011;7222;57.346;12.150;2022-07-21T14:35:05;10.48;;;9.70;;
14276;SDS011;7222;57.346;12.150;2022-07-21T14:37:32;12.48;;;11.38;;
14276;SDS011;7222;57.346;12.150;2022-07-21T14:39:59;11.98;;;10.93;;
14276;SDS011;7222;57.346;12.150;2022-07-21T14:42:26;11.35;;;10.48;;
14276;SDS011;7222;57.346;12.150;2022-07-21T14:44:55;11.00;;;10.15;;
14276;SDS011;7222;57.346;12.150;2022-07-21T14:47:23;10.50;;;9.60;;
14276;SDS011;7222;57.346;12.150;2022-07-21T14:49:50;11.38;;;10.43;;
14276;SDS011;7222;57.346;12.150;2022-07-21T14:52:17;10.15;;;9.35;;
14276;SDS011;7222;57.346;12.150;2022-07-21T14:54:45;10.50;;;9.60;;
14276;SDS011;7222;57.346;12.150;2022-07-21T14:57:12;9.90;;;9.10;;
14276;SDS011;7222;57.346;12.150;2022-07-21T14:59:39;11.63;;;10.77;;
14276;SDS011;7222;57.346;12.150;2022-07-21T15:02:08;12.13;;;11.02;;
14276;SDS011;7222;57.346;12.150;2022-07-21T15:04:35;10.65;;;9.85;;
14276;SDS011;7222;57.346;12.150;2022-07-21T15:07:02;10.20;;;9.38;;
14276;SDS011;7222;57.346;12.150;2022-07-21T15:09:29;12.05;;;10.77;;
14276;SDS011;7222;57.346;12.150;2022-07-21T15:11:56;11.55;;;10.55;;
14276;SDS011;7222;57.346;12.150;2022-07-21T15:14:23;11.13;;;10.07;;
14276;SDS011;7222;57.346;12.150;2022-07-21T15:16:50;12.65;;;11.55;;
14276;SDS011;7222;57.346;12.150;2022-07-21T15:19:18;10.85;;;9.95;;
14276;SDS011;7222;57.346;12.150;2022-07-21T15:21:46;12.63;;;11.48;;
14276;SDS011;7222;57.346;12.150;2022-07-21T15:24:13;10.65;;;9.75;;